createdAt,value
2023-05-07T00:00:10.034Z,100868.28
2023-05-07T00:02:39.693Z,100865.25
2023-05-07T00:05:11.071Z,100861.03
2023-05-07T00:07:40.079Z,100860.81
2023-05-07T00:10:10.392Z,100865.63
2023-05-07T00:12:39.288Z,100865.72
2023-05-07T00:15:09.836Z,100875.81
2023-05-07T00:17:39.136Z,100873.91
2023-05-07T00:20:09.426Z,100867.78
2023-05-07T00:22:39.571Z,100881.09
2023-05-07T00:25:09.074Z,100877.09
2023-05-07T00:27:37.999Z,100875.28
2023-05-07T00:30:08.417Z,100872.25
2023-05-07T00:32:38.198Z,100876.59
2023-05-07T00:35:08.252Z,100868.41
2023-05-07T00:37:36.914Z,100869.50
2023-05-07T00:40:09.653Z,100885.78
2023-05-07T00:42:39.102Z,100888.69
2023-05-07T00:45:09.399Z,100886.34
2023-05-07T00:47:38.001Z,100889.50
2023-05-07T00:50:08.413Z,100895.34
2023-05-07T00:52:36.983Z,100891.75
2023-05-07T00:55:09.123Z,100887.16
2023-05-07T00:57:40.475Z,100894.53
2023-05-07T01:00:11.224Z,100895.38
2023-05-07T01:02:40.924Z,100895.22
2023-05-07T01:05:12.669Z,100894.09
2023-05-07T01:07:43.217Z,100903.91
2023-05-07T01:10:14.667Z,100896.75
2023-05-07T01:12:44.249Z,100889.44
2023-05-07T01:15:13.498Z,100901.81
2023-05-07T01:17:43.885Z,100901.59
2023-05-07T01:20:22.277Z,100897.19
2023-05-07T01:22:54.357Z,100894.19
2023-05-07T01:25:23.646Z,100906.91
2023-05-07T01:27:55.518Z,100907.66
2023-05-07T01:30:29.076Z,100906.84
2023-05-07T01:33:02.718Z,100907.94
2023-05-07T01:35:34.899Z,100905.53
2023-05-07T01:38:07.188Z,100909.03
2023-05-07T01:40:36.325Z,100907.66
2023-05-07T01:43:05.635Z,100913.66
2023-05-07T01:45:36.793Z,100908.81
2023-05-07T01:48:06.700Z,100903.03
2023-05-07T01:50:37.434Z,100904.78
2023-05-07T01:53:07.962Z,100903.28
2023-05-07T01:55:37.951Z,100906.25
2023-05-07T01:58:07.260Z,100901.81
2023-05-07T02:00:37.139Z,100903.34
2023-05-07T02:03:06.703Z,100893.44
2023-05-07T02:05:53.113Z,100901.66
2023-05-07T02:08:35.177Z,100893.13
2023-05-07T02:11:04.962Z,100892.41
2023-05-07T02:13:35.460Z,100902.50
2023-05-07T02:16:04.665Z,100907.56
2023-05-07T02:18:34.425Z,100899.34
2023-05-07T02:21:03.544Z,100907.34
2023-05-07T02:23:32.476Z,100912.91
2023-05-07T02:26:03.107Z,100905.41
2023-05-07T02:28:31.844Z,100907.88
2023-05-07T02:31:05.324Z,100911.59
2023-05-07T02:33:36.074Z,100910.34
2023-05-07T02:36:10.885Z,100917.75
2023-05-07T02:38:54.860Z,100912.34
2023-05-07T02:41:25.573Z,100921.56
2023-05-07T02:43:54.119Z,100918.19
2023-05-07T02:46:23.796Z,100919.34
2023-05-07T02:49:00.650Z,100924.13
2023-05-07T02:51:29.563Z,100921.69
2023-05-07T02:54:01.983Z,100926.72
2023-05-07T02:56:33.212Z,100920.81
2023-05-07T02:59:01.863Z,100916.13
2023-05-07T03:01:35.070Z,100922.69
2023-05-07T03:04:07.190Z,100923.91
2023-05-07T03:06:36.252Z,100925.50
2023-05-07T03:09:05.421Z,100933.56
2023-05-07T03:11:36.705Z,100938.09
2023-05-07T03:14:05.945Z,100933.00
2023-05-07T03:16:34.701Z,100922.50
2023-05-07T03:19:03.714Z,100920.00
2023-05-07T03:21:34.847Z,100938.91
2023-05-07T03:24:03.985Z,100941.69
2023-05-07T03:26:32.874Z,100947.34
2023-05-07T03:29:03.330Z,100951.13
2023-05-07T03:31:31.886Z,100955.22
2023-05-07T03:34:01.854Z,100954.38
2023-05-07T03:36:31.709Z,100952.97
2023-05-07T03:39:00.637Z,100955.16
2023-05-07T03:41:37.476Z,100963.25
2023-05-07T03:44:08.231Z,100963.47
2023-05-07T03:46:36.890Z,100965.66
2023-05-07T03:49:05.947Z,100967.25
2023-05-07T03:51:37.820Z,100971.34
2023-05-07T03:54:08.843Z,100972.81
2023-05-07T03:56:38.526Z,100978.47
2023-05-07T03:59:09.008Z,100979.28
2023-05-07T04:01:37.686Z,100980.31
2023-05-07T04:04:06.759Z,100980.53
2023-05-07T04:06:37.809Z,100976.25
2023-05-07T04:09:06.713Z,100983.94
2023-05-07T04:11:35.862Z,100987.63
2023-05-07T04:14:04.884Z,100986.91
2023-05-07T04:16:35.010Z,100979.78
2023-05-07T04:19:04.707Z,100992.31
2023-05-07T04:21:34.755Z,100994.22
2023-05-07T04:24:05.336Z,100998.09
2023-05-07T04:26:35.121Z,100997.88
2023-05-07T04:29:04.830Z,101009.81
2023-05-07T04:31:37.255Z,101006.44
2023-05-07T04:34:06.601Z,101010.19
2023-05-07T04:36:35.626Z,101020.38
2023-05-07T04:39:11.554Z,101017.09
2023-05-07T04:41:42.705Z,101013.63
2023-05-07T04:44:12.399Z,101017.72
2023-05-07T04:46:42.723Z,101017.31
2023-05-07T04:49:11.413Z,101013.50
2023-05-07T04:51:45.089Z,101016.41
2023-05-07T04:54:15.616Z,101023.97
2023-05-07T04:56:44.570Z,101039.00
2023-05-07T04:59:13.693Z,101033.94
2023-05-07T05:01:44.073Z,101036.50
2023-05-07T05:04:14.687Z,101033.78
2023-05-07T05:06:43.749Z,101040.28
2023-05-07T05:09:13.816Z,101041.75
2023-05-07T05:11:44.300Z,101037.94
2023-05-07T05:14:13.203Z,101039.75
2023-05-07T05:16:44.069Z,101043.94
2023-05-07T05:19:13.330Z,101038.31
2023-05-07T05:21:43.548Z,101047.25
2023-05-07T05:24:13.131Z,101045.69
2023-05-07T05:26:42.398Z,101042.09
2023-05-07T05:29:11.533Z,101047.38
2023-05-07T05:31:44.458Z,101041.94
2023-05-07T05:34:13.830Z,101042.66
2023-05-07T05:36:43.478Z,101043.94
2023-05-07T05:39:12.507Z,101042.22
2023-05-07T05:41:41.518Z,101047.53
2023-05-07T05:44:11.048Z,101052.09
2023-05-07T05:46:40.266Z,101061.06
2023-05-07T05:49:11.268Z,101056.88
2023-05-07T05:51:40.990Z,101051.84
2023-05-07T05:54:10.078Z,101060.03
2023-05-07T05:56:39.810Z,101063.56
2023-05-07T05:59:09.978Z,101067.84
2023-05-07T06:01:38.839Z,101076.63
2023-05-07T06:04:07.808Z,101072.72
2023-05-07T06:06:38.571Z,101078.97
2023-05-07T06:09:07.796Z,101074.25
2023-05-07T06:11:42.087Z,101071.88
2023-05-07T06:14:12.375Z,101081.69
2023-05-07T06:16:41.511Z,101082.88
2023-05-07T06:19:10.824Z,101079.81
2023-05-07T06:21:42.734Z,101090.06
2023-05-07T06:24:11.558Z,101088.22
2023-05-07T06:26:41.912Z,101086.81
2023-05-07T06:29:11.135Z,101087.78
2023-05-07T06:31:41.802Z,101083.44
2023-05-07T06:34:15.316Z,101091.03
2023-05-07T06:36:46.134Z,101101.59
2023-05-07T06:39:25.852Z,101095.16
2023-05-07T06:41:55.407Z,101092.59
2023-05-07T06:44:29.169Z,101084.69
2023-05-07T06:47:15.680Z,101090.31
2023-05-07T06:49:46.541Z,101085.09
2023-05-07T06:52:20.162Z,101087.50
2023-05-07T06:54:52.865Z,101097.16
2023-05-07T06:57:24.141Z,101100.25
2023-05-07T06:59:53.249Z,101099.63
2023-05-07T07:02:23.303Z,101103.97
2023-05-07T07:04:52.484Z,101105.91
2023-05-07T07:07:23.675Z,101105.19
2023-05-07T07:09:53.629Z,101110.78
2023-05-07T07:12:23.857Z,101111.75
2023-05-07T07:14:55.126Z,101111.75
2023-05-07T07:17:24.989Z,101114.97
2023-05-07T07:19:54.420Z,101119.69
2023-05-07T07:22:24.792Z,101123.38
2023-05-07T07:24:54.112Z,101112.13
2023-05-07T07:27:23.465Z,101115.56
2023-05-07T07:29:52.714Z,101126.63
2023-05-07T07:32:21.947Z,101131.75
2023-05-07T07:34:50.724Z,101130.66
2023-05-07T07:37:19.708Z,101133.53
2023-05-07T07:39:50.032Z,101127.88
2023-05-07T07:42:19.339Z,101128.56
2023-05-07T07:44:48.354Z,101138.06
2023-05-07T07:47:19.327Z,101129.13
2023-05-07T07:49:50.245Z,101128.91
2023-05-07T07:52:19.259Z,101141.69
2023-05-07T07:54:50.191Z,101135.81
2023-05-07T07:57:19.312Z,101134.34
2023-05-07T07:59:49.587Z,101129.97
2023-05-07T08:02:18.964Z,101140.78
2023-05-07T08:04:48.081Z,101130.97
2023-05-07T08:07:19.544Z,101143.91
2023-05-07T08:09:52.422Z,101144.03
2023-05-07T08:12:24.776Z,101148.09
2023-05-07T08:14:53.956Z,101142.88
2023-05-07T08:17:24.385Z,101149.91
2023-05-07T08:19:53.344Z,101159.25
2023-05-07T08:22:23.232Z,101162.56
2023-05-07T08:24:55.031Z,101149.34
2023-05-07T08:27:24.761Z,101159.34
2023-05-07T08:29:55.978Z,101151.19
2023-05-07T08:32:25.328Z,101154.78
2023-05-07T08:34:54.171Z,101154.66
2023-05-07T08:37:23.420Z,101157.69
2023-05-07T08:39:54.158Z,101147.88
2023-05-07T08:42:26.983Z,101155.16
2023-05-07T08:45:00.497Z,101151.34
2023-05-07T08:47:32.517Z,101159.88
2023-05-07T08:50:04.419Z,101152.16
2023-05-07T08:52:33.241Z,101168.19
2023-05-07T08:55:05.129Z,101177.56
2023-05-07T08:57:35.001Z,101161.19
2023-05-07T09:00:05.212Z,101166.22
2023-05-07T09:02:34.960Z,101171.50
2023-05-07T09:05:04.065Z,101178.34
2023-05-07T09:07:33.062Z,101184.88
2023-05-07T09:10:05.494Z,101170.94
2023-05-07T09:12:36.453Z,101184.16
2023-05-07T09:15:08.816Z,101189.06
2023-05-07T09:17:39.738Z,101191.09
2023-05-07T09:20:11.080Z,101197.41
2023-05-07T09:22:41.081Z,101191.91
2023-05-07T09:25:15.168Z,101191.91
2023-05-07T09:27:45.065Z,101210.41
2023-05-07T09:30:15.151Z,101196.09
2023-05-07T09:32:44.241Z,101213.28
2023-05-07T09:35:19.498Z,101203.16
2023-05-07T09:37:53.424Z,101197.22
2023-05-07T09:40:28.449Z,101204.31
2023-05-07T09:43:11.628Z,101204.13
2023-05-07T09:45:43.714Z,101206.34
2023-05-07T09:48:13.695Z,101215.72
2023-05-07T09:50:48.331Z,101204.53
2023-05-07T09:53:18.920Z,101206.69
2023-05-07T09:55:49.696Z,101213.44
2023-05-07T09:58:19.179Z,101211.31
2023-05-07T10:00:49.600Z,101220.53
2023-05-07T10:03:20.292Z,101221.09
2023-05-07T10:06:01.158Z,101228.47
2023-05-07T10:08:31.698Z,101235.59
2023-05-07T10:11:04.138Z,101233.31
2023-05-07T10:13:33.793Z,101231.53
2023-05-07T10:16:03.114Z,101241.50
2023-05-07T10:18:36.912Z,101241.75
2023-05-07T10:21:15.633Z,101247.56
2023-05-07T10:23:47.620Z,101240.84
2023-05-07T10:26:19.705Z,101232.41
2023-05-07T10:28:51.636Z,101234.53
2023-05-07T10:31:30.851Z,101236.41
2023-05-07T10:34:00.750Z,101238.16
2023-05-07T10:36:30.360Z,101241.91
2023-05-07T10:39:00.670Z,101246.47
2023-05-07T10:41:31.502Z,101233.63
2023-05-07T10:44:02.445Z,101255.41
2023-05-07T10:46:36.596Z,101252.09
2023-05-07T10:49:17.445Z,101247.50
2023-05-07T10:52:17.051Z,101263.84
2023-05-07T10:55:26.507Z,101261.56
2023-05-07T11:01:15.921Z,101254.53
2023-05-07T11:04:15.232Z,101255.78
2023-05-07T11:07:27.467Z,101261.16
2023-05-07T11:10:05.848Z,101256.22
2023-05-07T11:13:04.327Z,101261.81
2023-05-07T11:15:47.338Z,101264.09
2023-05-07T11:18:24.083Z,101263.91
2023-05-07T11:20:58.237Z,101271.56
2023-05-07T11:24:01.204Z,101271.66
2023-05-07T11:26:50.215Z,101269.25
2023-05-07T11:29:22.487Z,101265.97
2023-05-07T11:31:57.978Z,101262.63
2023-05-07T11:34:31.657Z,101270.16
2023-05-07T11:37:01.526Z,101265.06
2023-05-07T11:40:10.482Z,101268.88
2023-05-07T11:42:40.953Z,101267.34
2023-05-07T11:45:11.136Z,101278.44
2023-05-07T11:47:44.149Z,101281.25
2023-05-07T11:50:14.068Z,101281.38
2023-05-07T11:52:42.623Z,101272.25
2023-05-07T11:55:11.663Z,101275.50
2023-05-07T11:57:40.745Z,101274.72
2023-05-07T12:00:10.904Z,101277.72
2023-05-07T12:02:45.873Z,101275.72
2023-05-07T12:05:15.387Z,101276.91
2023-05-07T12:07:44.226Z,101273.84
2023-05-07T12:10:14.941Z,101279.41
2023-05-07T12:12:44.141Z,101279.09
2023-05-07T12:15:13.463Z,101276.75
2023-05-07T12:17:46.460Z,101286.09
2023-05-07T12:20:15.760Z,101287.53
2023-05-07T12:22:44.330Z,101287.53
2023-05-07T12:25:16.292Z,101277.69
2023-05-07T12:27:45.509Z,101292.53
2023-05-07T12:30:15.629Z,101283.47
2023-05-07T12:32:46.121Z,101294.66
2023-05-07T12:35:15.149Z,101296.72
2023-05-07T12:37:43.694Z,101293.84
2023-05-07T12:40:14.050Z,101295.03
2023-05-07T12:42:43.547Z,101289.44
2023-05-07T12:45:13.993Z,101299.03
2023-05-07T12:47:47.840Z,101302.22
2023-05-07T12:50:17.312Z,101299.13
2023-05-07T12:52:46.741Z,101307.84
2023-05-07T12:55:17.507Z,101301.69
2023-05-07T12:57:50.320Z,101303.00
2023-05-07T13:00:19.457Z,101296.97
2023-05-07T13:02:49.887Z,101294.53
2023-05-07T13:05:19.098Z,101304.81
2023-05-07T13:07:55.854Z,101294.53
2023-05-07T13:10:25.389Z,101289.28
2023-05-07T13:12:54.685Z,101290.22
2023-05-07T13:15:24.444Z,101293.03
2023-05-07T13:17:54.908Z,101299.44
2023-05-07T13:20:24.020Z,101293.03
2023-05-07T13:22:52.776Z,101290.16
2023-05-07T13:25:21.799Z,101298.13
2023-05-07T13:27:59.726Z,101299.09
2023-05-07T13:30:39.066Z,101294.88
2023-05-07T13:33:09.943Z,101284.44
2023-05-07T13:35:39.335Z,101298.28
2023-05-07T13:38:08.363Z,101293.41
2023-05-07T13:40:36.966Z,101291.63
2023-05-07T13:43:06.011Z,101295.66
2023-05-07T13:45:35.275Z,101296.22
2023-05-07T13:48:07.144Z,101295.06
2023-05-07T13:50:39.418Z,101299.75
2023-05-07T13:53:09.779Z,101302.78
2023-05-07T13:55:38.405Z,101301.78
2023-05-07T13:58:07.660Z,101292.75
2023-05-07T14:00:36.889Z,101299.31
2023-05-07T14:03:07.279Z,101298.94
2023-05-07T14:05:37.038Z,101290.19
2023-05-07T14:08:08.925Z,101290.75
2023-05-07T14:10:37.515Z,101298.13
2023-05-07T14:13:06.484Z,101300.81
2023-05-07T14:15:35.507Z,101295.16
2023-05-07T14:18:04.608Z,101307.00
2023-05-07T14:20:33.864Z,101293.53
2023-05-07T14:23:02.926Z,101288.75
2023-05-07T14:25:33.110Z,101295.63
2023-05-07T14:28:02.097Z,101294.03
2023-05-07T14:30:30.971Z,101295.69
2023-05-07T14:33:00.005Z,101295.84
2023-05-07T14:35:29.270Z,101289.00
2023-05-07T14:37:58.274Z,101297.09
2023-05-07T14:40:27.141Z,101299.69
2023-05-07T14:42:58.893Z,101309.06
2023-05-07T14:45:28.004Z,101309.50
2023-05-07T14:47:56.920Z,101304.75
2023-05-07T14:50:26.309Z,101297.19
2023-05-07T14:52:54.841Z,101298.44
2023-05-07T14:55:23.810Z,101303.94
2023-05-07T14:57:53.680Z,101313.75
2023-05-07T15:00:24.117Z,101308.56
2023-05-07T15:02:53.269Z,101300.31
2023-05-07T15:05:22.263Z,101301.97
2023-05-07T15:07:50.844Z,101302.34
2023-05-07T15:10:19.926Z,101308.09
2023-05-07T15:12:49.036Z,101318.38
2023-05-07T15:15:17.993Z,101315.88
2023-05-07T15:17:48.706Z,101319.69
2023-05-07T15:20:18.653Z,101315.69
2023-05-07T15:22:47.139Z,101309.47
2023-05-07T15:25:16.381Z,101306.31
2023-05-07T15:27:46.039Z,101305.69
2023-05-07T15:30:16.418Z,101305.66
2023-05-07T15:32:45.493Z,101297.66
2023-05-07T15:35:15.946Z,101303.78
2023-05-07T15:37:44.759Z,101309.13
2023-05-07T15:40:15.302Z,101303.13
2023-05-07T15:42:44.398Z,101301.47
2023-05-07T15:45:13.797Z,101312.50
2023-05-07T15:47:43.039Z,101306.41
2023-05-07T15:50:12.673Z,101303.97
2023-05-07T15:52:42.757Z,101315.97
2023-05-07T15:55:12.363Z,101301.78
2023-05-07T15:57:41.749Z,101315.38
2023-05-07T16:00:12.661Z,101310.00
2023-05-07T16:02:41.939Z,101298.97
2023-05-07T16:05:12.154Z,101310.69
2023-05-07T16:07:44.277Z,101307.22
2023-05-07T16:10:13.532Z,101304.91
2023-05-07T16:12:42.661Z,101302.34
2023-05-07T16:15:12.590Z,101311.25
2023-05-07T16:17:41.748Z,101315.56
2023-05-07T16:20:13.252Z,101308.38
2023-05-07T16:22:43.304Z,101304.78
2023-05-07T16:25:14.851Z,101309.69
2023-05-07T16:27:43.907Z,101306.97
2023-05-07T16:30:13.305Z,101311.25
2023-05-07T16:32:42.313Z,101311.16
2023-05-07T16:35:12.559Z,101307.31
2023-05-07T16:37:43.291Z,101309.63
2023-05-07T16:40:13.121Z,101309.47
2023-05-07T16:42:42.224Z,101314.91
2023-05-07T16:45:12.463Z,101311.22
2023-05-07T16:47:41.671Z,101315.94
2023-05-07T16:50:11.455Z,101319.31
2023-05-07T16:52:40.045Z,101322.06
2023-05-07T16:55:11.417Z,101319.91
2023-05-07T16:57:40.797Z,101317.84
2023-05-07T17:00:11.786Z,101316.00
2023-05-07T17:02:41.013Z,101325.59
2023-05-07T17:05:11.160Z,101328.69
2023-05-07T17:07:40.598Z,101328.34
2023-05-07T17:10:12.037Z,101320.00
2023-05-07T17:12:41.297Z,101329.50
2023-05-07T17:15:11.694Z,101328.59
2023-05-07T17:17:42.163Z,101333.47
2023-05-07T17:20:11.789Z,101337.00
2023-05-07T17:22:40.630Z,101335.97
2023-05-07T17:25:13.021Z,101336.22
2023-05-07T17:27:43.934Z,101349.44
2023-05-07T17:30:14.015Z,101346.56
2023-05-07T17:32:43.645Z,101355.88
2023-05-07T17:35:12.556Z,101356.38
2023-05-07T17:37:41.988Z,101359.13
2023-05-07T17:40:13.372Z,101366.16
2023-05-07T17:42:43.158Z,101367.16
2023-05-07T17:45:13.307Z,101371.44
2023-05-07T17:47:42.430Z,101365.53
2023-05-07T17:50:12.690Z,101366.38
2023-05-07T17:52:42.647Z,101368.56
2023-05-07T17:55:14.338Z,101372.59
2023-05-07T17:57:43.724Z,101372.03
2023-05-07T18:00:13.942Z,101377.19
2023-05-07T18:02:43.491Z,101384.84
2023-05-07T18:05:12.822Z,101387.84
2023-05-07T18:07:41.338Z,101388.59
2023-05-07T18:10:11.437Z,101393.28
2023-05-07T18:12:41.956Z,101395.09
2023-05-07T18:15:11.515Z,101405.94
2023-05-07T18:17:41.259Z,101398.09
2023-05-07T18:20:11.921Z,101404.94
2023-05-07T18:22:41.618Z,101406.28
2023-05-07T18:25:10.836Z,101403.34
2023-05-07T18:27:41.356Z,101414.22
2023-05-07T18:30:11.698Z,101417.19
2023-05-07T18:32:41.007Z,101415.63
2023-05-07T18:35:10.564Z,101424.22
2023-05-07T18:37:39.224Z,101423.69
2023-05-07T18:40:09.390Z,101423.78
2023-05-07T18:42:38.482Z,101424.81
2023-05-07T18:45:09.726Z,101426.41
2023-05-07T18:47:38.707Z,101435.03
2023-05-07T18:50:08.545Z,101433.25
2023-05-07T18:52:37.383Z,101439.44
2023-05-07T18:55:07.471Z,101438.06
2023-05-07T18:57:36.961Z,101445.91
2023-05-07T19:00:11.241Z,101448.69
2023-05-07T19:02:40.495Z,101454.41
2023-05-07T19:05:10.808Z,101457.59
2023-05-07T19:07:39.664Z,101456.34
2023-05-07T19:10:09.744Z,101457.94
2023-05-07T19:12:38.949Z,101458.69
2023-05-07T19:15:10.857Z,101460.16
2023-05-07T19:17:40.250Z,101466.06
2023-05-07T19:20:10.914Z,101465.75
2023-05-07T19:22:39.498Z,101459.41
2023-05-07T19:25:10.012Z,101472.00
2023-05-07T19:27:39.385Z,101473.47
2023-05-07T19:30:13.016Z,101476.44
2023-05-07T19:32:42.007Z,101474.34
2023-05-07T19:35:11.468Z,101477.84
2023-05-07T19:37:40.720Z,101484.56
2023-05-07T19:40:10.792Z,101493.34
2023-05-07T19:42:39.841Z,101492.72
2023-05-07T19:45:11.426Z,101487.22
2023-05-07T19:47:40.776Z,101498.41
2023-05-07T19:50:10.850Z,101503.28
2023-05-07T19:52:39.817Z,101496.41
2023-05-07T19:55:09.980Z,101501.78
2023-05-07T19:57:38.947Z,101501.78
2023-05-07T20:00:11.275Z,101505.16
2023-05-07T20:02:43.464Z,101510.13
2023-05-07T20:05:15.740Z,101502.97
2023-05-07T20:07:46.253Z,101509.63
2023-05-07T20:10:15.906Z,101511.28
2023-05-07T20:12:44.854Z,101515.72
2023-05-07T20:15:15.741Z,101519.84
2023-05-07T20:17:44.818Z,101515.63
2023-05-07T20:20:14.692Z,101519.06
2023-05-07T20:22:43.512Z,101518.03
2023-05-07T20:25:15.013Z,101515.09
2023-05-07T20:27:44.146Z,101519.84
2023-05-07T20:30:15.702Z,101529.78
2023-05-07T20:32:44.901Z,101526.41
2023-05-07T20:35:14.598Z,101528.09
2023-05-07T20:37:43.343Z,101533.66
2023-05-07T20:40:12.665Z,101528.78
2023-05-07T20:42:42.696Z,101537.34
2023-05-07T20:45:13.144Z,101537.84
2023-05-07T20:47:43.714Z,101539.25
2023-05-07T20:50:13.300Z,101537.94
2023-05-07T20:52:43.000Z,101541.66
2023-05-07T20:55:12.024Z,101540.78
2023-05-07T20:57:40.912Z,101541.00
2023-05-07T21:00:11.088Z,101545.16
2023-05-07T21:02:40.054Z,101547.81
2023-05-07T21:05:11.186Z,101549.41
2023-05-07T21:07:40.092Z,101546.44
2023-05-07T21:10:10.002Z,101554.66
2023-05-07T21:12:39.835Z,101550.50
2023-05-07T21:15:10.669Z,101552.03
2023-05-07T21:17:39.717Z,101554.78
2023-05-07T21:20:11.849Z,101566.34
2023-05-07T21:22:40.694Z,101562.00
2023-05-07T21:25:12.582Z,101563.22
2023-05-07T21:27:42.528Z,101560.50
2023-05-07T21:30:13.091Z,101577.16
2023-05-07T21:32:42.404Z,101571.50
2023-05-07T21:35:13.008Z,101578.41
2023-05-07T21:37:41.754Z,101572.97
2023-05-07T21:40:11.483Z,101590.53
2023-05-07T21:42:40.646Z,101583.94
2023-05-07T21:45:10.374Z,101596.34
2023-05-07T21:47:39.313Z,101599.19
2023-05-07T21:50:08.992Z,101603.41
2023-05-07T21:52:39.018Z,101604.47
2023-05-07T21:55:09.292Z,101604.75
2023-05-07T21:57:40.732Z,101609.91
2023-05-07T22:00:12.458Z,101615.28
2023-05-07T22:02:41.692Z,101608.88
2023-05-07T22:05:11.217Z,101606.13
2023-05-07T22:07:41.416Z,101606.13
2023-05-07T22:10:11.311Z,101606.63
2023-05-07T22:12:41.447Z,101597.94
2023-05-07T22:15:11.017Z,101601.81
2023-05-07T22:17:40.074Z,101606.78
2023-05-07T22:20:10.837Z,101614.78
2023-05-07T22:22:50.301Z,101608.47
2023-05-07T22:25:20.926Z,101611.22
2023-05-07T22:27:50.284Z,101607.88
2023-05-07T22:30:19.380Z,101605.81
2023-05-07T22:32:48.317Z,101612.47
2023-05-07T22:35:17.190Z,101606.59
2023-05-07T22:37:45.680Z,101606.84
2023-05-07T22:40:16.482Z,101605.06
2023-05-07T22:42:45.669Z,101610.22
2023-05-07T22:45:14.609Z,101615.47
2023-05-07T22:47:43.571Z,101611.81
2023-05-07T22:50:13.416Z,101614.78
2023-05-07T22:52:42.249Z,101609.53
2023-05-07T22:55:11.644Z,101607.59
2023-05-07T22:57:42.283Z,101608.53
2023-05-07T23:00:12.501Z,101607.69
2023-05-07T23:02:41.344Z,101601.91
2023-05-07T23:05:10.636Z,101611.13
2023-05-07T23:07:39.286Z,101606.91
2023-05-07T23:10:09.286Z,101601.00
2023-05-07T23:12:38.323Z,101605.41
2023-05-07T23:15:10.027Z,101609.13
2023-05-07T23:17:39.094Z,101610.59
2023-05-07T23:20:09.607Z,101610.47
2023-05-07T23:22:38.470Z,101620.53
2023-05-07T23:25:09.106Z,101617.38
2023-05-07T23:27:38.322Z,101613.75
2023-05-07T23:30:10.548Z,101606.94
2023-05-07T23:32:39.786Z,101602.53
2023-05-07T23:35:09.720Z,101603.72
2023-05-07T23:37:39.237Z,101599.69
2023-05-07T23:40:10.126Z,101602.47
2023-05-07T23:42:38.867Z,101603.38
2023-05-07T23:45:10.512Z,101604.38
2023-05-07T23:47:39.570Z,101600.44
2023-05-07T23:50:09.148Z,101596.28
2023-05-07T23:52:37.920Z,101590.84
2023-05-07T23:55:07.679Z,101600.16
2023-05-07T23:57:36.744Z,101595.75
